sensor_id;sensor_type;location;lat;lon;timestamp;temperature;humidity
4501;DHT22;2263;54.654;9.410;2022-12-07T00:01:35;2.70;90.30
4501;DHT22;2263;54.654;9.410;2022-12-07T00:04:03;2.60;90.30
4501;DHT22;2263;54.654;9.410;2022-12-07T00:06:32;2.60;90.20
4501;DHT22;2263;54.654;9.410;2022-12-07T00:09:00;2.60;90.30
4501;DHT22;2263;54.654;9.410;2022-12-07T00:11:27;2.60;90.30
4501;DHT22;2263;54.654;9.410;2022-12-07T00:13:57;2.60;90.20
4501;DHT22;2263;54.654;9.410;2022-12-07T00:16:28;2.60;90.20
4501;DHT22;2263;54.654;9.410;2022-12-07T00:18:55;2.60;90.20
4501;DHT22;2263;54.654;9.410;2022-12-07T00:21:28;2.50;90.20
4501;DHT22;2263;54.654;9.410;2022-12-07T00:23:55;2.50;90.20
4501;DHT22;2263;54.654;9.410;2022-12-07T00:26:26;2.50;90.10
4501;DHT22;2263;54.654;9.410;2022-12-07T00:28:56;2.50;90.10
4501;DHT22;2263;54.654;9.410;2022-12-07T00:31:26;2.50;90.20
4501;DHT22;2263;54.654;9.410;2022-12-07T00:33:53;2.50;90.10
4501;DHT22;2263;54.654;9.410;2022-12-07T00:36:22;2.50;90.20
4501;DHT22;2263;54.654;9.410;2022-12-07T00:38:54;2.50;90.20
4501;DHT22;2263;54.654;9.410;2022-12-07T00:41:24;2.50;90.20
4501;DHT22;2263;54.654;9.410;2022-12-07T00:43:52;2.50;90.20
4501;DHT22;2263;54.654;9.410;2022-12-07T00:46:20;2.50;90.10
4501;DHT22;2263;54.654;9.410;2022-12-07T00:48:49;2.40;90.00
4501;DHT22;2263;54.654;9.410;2022-12-07T00:51:17;2.40;90.20
4501;DHT22;2263;54.654;9.410;2022-12-07T00:53:45;2.40;90.10
4501;DHT22;2263;54.654;9.410;2022-12-07T00:56:18;2.40;90.20
4501;DHT22;2263;54.654;9.410;2022-12-07T00:58:56;2.40;90.20
4501;DHT22;2263;54.654;9.410;2022-12-07T01:01:25;2.40;90.20
4501;DHT22;2263;54.654;9.410;2022-12-07T01:03:53;2.40;90.20
4501;DHT22;2263;54.654;9.410;2022-12-07T01:06:21;2.40;90.20
4501;DHT22;2263;54.654;9.410;2022-12-07T01:08:49;2.40;90.20
4501;DHT22;2263;54.654;9.410;2022-12-07T01:11:18;2.40;90.20
4501;DHT22;2263;54.654;9.410;2022-12-07T01:13:46;2.40;90.30
4501;DHT22;2263;54.654;9.410;2022-12-07T01:16:15;2.40;90.20
4501;DHT22;2263;54.654;9.410;2022-12-07T01:18:46;2.40;90.10
4501;DHT22;2263;54.654;9.410;2022-12-07T01:21:17;2.40;90.20
4501;DHT22;2263;54.654;9.410;2022-12-07T01:23:44;2.40;90.20
4501;DHT22;2263;54.654;9.410;2022-12-07T01:26:14;2.30;90.20
4501;DHT22;2263;54.654;9.410;2022-12-07T01:28:42;2.30;90.30
4501;DHT22;2263;54.654;9.410;2022-12-07T01:31:19;2.30;90.30
4501;DHT22;2263;54.654;9.410;2022-12-07T01:33:49;2.30;90.20
4501;DHT22;2263;54.654;9.410;2022-12-07T01:36:24;2.30;90.10
4501;DHT22;2263;54.654;9.410;2022-12-07T01:38:56;2.30;90.20
4501;DHT22;2263;54.654;9.410;2022-12-07T01:41:26;2.30;90.20
4501;DHT22;2263;54.654;9.410;2022-12-07T01:46:33;2.30;90.30
4501;DHT22;2263;54.654;9.410;2022-12-07T01:49:00;2.30;90.30
4501;DHT22;2263;54.654;9.410;2022-12-07T01:51:28;2.30;90.30
4501;DHT22;2263;54.654;9.410;2022-12-07T01:53:56;2.30;90.30
4501;DHT22;2263;54.654;9.410;2022-12-07T01:56:25;2.30;90.20
4501;DHT22;2263;54.654;9.410;2022-12-07T01:58:54;2.30;90.20
4501;DHT22;2263;54.654;9.410;2022-12-07T02:01:22;2.20;90.10
4501;DHT22;2263;54.654;9.410;2022-12-07T02:03:49;2.20;90.20
4501;DHT22;2263;54.654;9.410;2022-12-07T02:06:20;2.20;90.10
4501;DHT22;2263;54.654;9.410;2022-12-07T02:08:49;2.20;90.10
4501;DHT22;2263;54.654;9.410;2022-12-07T02:11:17;2.20;90.10
4501;DHT22;2263;54.654;9.410;2022-12-07T02:13:45;2.20;90.10
4501;DHT22;2263;54.654;9.410;2022-12-07T02:30:05;2.10;89.50
4501;DHT22;2263;54.654;9.410;2022-12-07T02:32:44;2.10;90.00
4501;DHT22;2263;54.654;9.410;2022-12-07T02:40:36;2.10;89.90
4501;DHT22;2263;54.654;9.410;2022-12-07T02:43:10;2.00;89.90
4501;DHT22;2263;54.654;9.410;2022-12-07T02:45:40;2.00;89.80
4501;DHT22;2263;54.654;9.410;2022-12-07T02:48:10;2.00;89.40
4501;DHT22;2263;54.654;9.410;2022-12-07T02:50:38;2.00;89.70
4501;DHT22;2263;54.654;9.410;2022-12-07T02:53:27;2.00;89.80
4501;DHT22;2263;54.654;9.410;2022-12-07T02:55:52;2.00;89.80
4501;DHT22;2263;54.654;9.410;2022-12-07T02:58:42;2.00;89.50
4501;DHT22;2263;54.654;9.410;2022-12-07T03:01:30;1.90;89.30
4501;DHT22;2263;54.654;9.410;2022-12-07T03:10:09;1.90;89.50
4501;DHT22;2263;54.654;9.410;2022-12-07T03:15:45;1.80;89.20
4501;DHT22;2263;54.654;9.410;2022-12-07T03:18:17;1.80;89.40
4501;DHT22;2263;54.654;9.410;2022-12-07T03:20:47;1.80;89.20
4501;DHT22;2263;54.654;9.410;2022-12-07T03:23:16;1.80;89.60
4501;DHT22;2263;54.654;9.410;2022-12-07T03:25:50;1.80;89.40
4501;DHT22;2263;54.654;9.410;2022-12-07T03:28:31;1.80;89.30
4501;DHT22;2263;54.654;9.410;2022-12-07T03:31:16;1.80;88.80
4501;DHT22;2263;54.654;9.410;2022-12-07T03:33:56;1.70;89.00
4501;DHT22;2263;54.654;9.410;2022-12-07T03:37:04;1.70;89.00
4501;DHT22;2263;54.654;9.410;2022-12-07T03:40:05;1.70;89.10
4501;DHT22;2263;54.654;9.410;2022-12-07T03:42:34;1.70;89.30
4501;DHT22;2263;54.654;9.410;2022-12-07T03:45:02;1.70;89.10
4501;DHT22;2263;54.654;9.410;2022-12-07T03:47:45;1.70;89.20
4501;DHT22;2263;54.654;9.410;2022-12-07T03:50:28;1.60;89.10
4501;DHT22;2263;54.654;9.410;2022-12-07T03:53:45;1.60;89.30
4501;DHT22;2263;54.654;9.410;2022-12-07T03:55:47;1.60;89.20
4501;DHT22;2263;54.654;9.410;2022-12-07T03:58:20;1.60;88.90
4501;DHT22;2263;54.654;9.410;2022-12-07T04:00:49;1.60;89.00
4501;DHT22;2263;54.654;9.410;2022-12-07T04:03:17;1.60;89.20
4501;DHT22;2263;54.654;9.410;2022-12-07T04:05:44;1.60;89.10
4501;DHT22;2263;54.654;9.410;2022-12-07T04:08:11;1.60;88.80
4501;DHT22;2263;54.654;9.410;2022-12-07T04:10:39;1.60;89.00
4501;DHT22;2263;54.654;9.410;2022-12-07T04:13:06;1.50;89.00
4501;DHT22;2263;54.654;9.410;2022-12-07T04:15:33;1.50;89.20
4501;DHT22;2263;54.654;9.410;2022-12-07T04:18:00;1.50;89.00
4501;DHT22;2263;54.654;9.410;2022-12-07T04:20:27;1.50;89.20
4501;DHT22;2263;54.654;9.410;2022-12-07T04:22:54;1.50;89.20
4501;DHT22;2263;54.654;9.410;2022-12-07T04:25:21;1.50;88.90
4501;DHT22;2263;54.654;9.410;2022-12-07T04:27:48;1.50;88.90
4501;DHT22;2263;54.654;9.410;2022-12-07T04:30:15;1.50;88.80
4501;DHT22;2263;54.654;9.410;2022-12-07T04:32:42;1.50;89.10
4501;DHT22;2263;54.654;9.410;2022-12-07T04:35:09;1.50;89.00
4501;DHT22;2263;54.654;9.410;2022-12-07T04:37:36;1.40;88.90
4501;DHT22;2263;54.654;9.410;2022-12-07T04:40:08;1.40;88.90
4501;DHT22;2263;54.654;9.410;2022-12-07T04:42:37;1.40;88.70
4501;DHT22;2263;54.654;9.410;2022-12-07T04:45:04;1.40;88.90
4501;DHT22;2263;54.654;9.410;2022-12-07T04:47:32;1.40;88.90
4501;DHT22;2263;54.654;9.410;2022-12-07T04:49:59;1.40;88.90
4501;DHT22;2263;54.654;9.410;2022-12-07T04:52:27;1.40;88.90
4501;DHT22;2263;54.654;9.410;2022-12-07T04:54:54;1.40;88.90
4501;DHT22;2263;54.654;9.410;2022-12-07T04:57:21;1.40;89.00
4501;DHT22;2263;54.654;9.410;2022-12-07T04:59:48;1.30;88.60
4501;DHT22;2263;54.654;9.410;2022-12-07T05:02:15;1.30;89.00
4501;DHT22;2263;54.654;9.410;2022-12-07T05:04:42;1.30;88.90
4501;DHT22;2263;54.654;9.410;2022-12-07T05:07:09;1.30;88.90
4501;DHT22;2263;54.654;9.410;2022-12-07T05:09:36;1.30;88.90
4501;DHT22;2263;54.654;9.410;2022-12-07T05:12:03;1.30;88.80
4501;DHT22;2263;54.654;9.410;2022-12-07T05:14:30;1.30;88.70
4501;DHT22;2263;54.654;9.410;2022-12-07T05:16:57;1.30;88.80
4501;DHT22;2263;54.654;9.410;2022-12-07T05:19:24;1.30;88.70
4501;DHT22;2263;54.654;9.410;2022-12-07T05:21:52;1.20;88.70
4501;DHT22;2263;54.654;9.410;2022-12-07T05:24:20;1.20;88.70
4501;DHT22;2263;54.654;9.410;2022-12-07T05:26:47;1.20;88.70
4501;DHT22;2263;54.654;9.410;2022-12-07T05:29:16;1.20;88.70
4501;DHT22;2263;54.654;9.410;2022-12-07T05:31:44;1.20;88.80
4501;DHT22;2263;54.654;9.410;2022-12-07T05:34:12;1.20;88.70
4501;DHT22;2263;54.654;9.410;2022-12-07T05:36:39;1.20;88.80
4501;DHT22;2263;54.654;9.410;2022-12-07T05:39:06;1.20;88.70
4501;DHT22;2263;54.654;9.410;2022-12-07T05:41:34;1.20;88.60
4501;DHT22;2263;54.654;9.410;2022-12-07T05:44:19;1.20;88.40
4501;DHT22;2263;54.654;9.410;2022-12-07T05:46:46;1.10;88.50
4501;DHT22;2263;54.654;9.410;2022-12-07T05:49:13;1.10;88.70
4501;DHT22;2263;54.654;9.410;2022-12-07T05:51:40;1.10;88.50
4501;DHT22;2263;54.654;9.410;2022-12-07T05:54:07;1.10;88.50
4501;DHT22;2263;54.654;9.410;2022-12-07T05:56:34;1.10;88.50
4501;DHT22;2263;54.654;9.410;2022-12-07T05:59:01;1.10;88.50
4501;DHT22;2263;54.654;9.410;2022-12-07T06:01:47;1.10;88.60
4501;DHT22;2263;54.654;9.410;2022-12-07T06:04:15;1.10;88.60
4501;DHT22;2263;54.654;9.410;2022-12-07T06:06:42;1.00;88.30
4501;DHT22;2263;54.654;9.410;2022-12-07T06:09:09;1.00;88.30
4501;DHT22;2263;54.654;9.410;2022-12-07T06:11:36;0.90;87.00
4501;DHT22;2263;54.654;9.410;2022-12-07T06:14:22;0.90;88.30
4501;DHT22;2263;54.654;9.410;2022-12-07T06:16:50;0.90;88.30
4501;DHT22;2263;54.654;9.410;2022-12-07T06:19:17;0.90;88.40
4501;DHT22;2263;54.654;9.410;2022-12-07T06:21:45;0.70;87.20
4501;DHT22;2263;54.654;9.410;2022-12-07T06:24:14;0.70;88.50
4501;DHT22;2263;54.654;9.410;2022-12-07T06:26:42;0.80;88.70
4501;DHT22;2263;54.654;9.410;2022-12-07T06:29:11;0.80;88.80
4501;DHT22;2263;54.654;9.410;2022-12-07T06:31:38;0.90;88.90
4501;DHT22;2263;54.654;9.410;2022-12-07T06:34:17;0.90;88.90
4501;DHT22;2263;54.654;9.410;2022-12-07T06:36:45;0.90;89.00
4501;DHT22;2263;54.654;9.410;2022-12-07T06:39:13;1.00;88.90
4501;DHT22;2263;54.654;9.410;2022-12-07T06:41:40;1.00;88.80
4501;DHT22;2263;54.654;9.410;2022-12-07T06:44:07;1.00;88.70
4501;DHT22;2263;54.654;9.410;2022-12-07T06:46:34;1.10;88.70
4501;DHT22;2263;54.654;9.410;2022-12-07T06:49:04;1.00;88.60
4501;DHT22;2263;54.654;9.410;2022-12-07T06:51:33;1.10;88.60
4501;DHT22;2263;54.654;9.410;2022-12-07T06:54:04;1.00;89.10
4501;DHT22;2263;54.654;9.410;2022-12-07T06:56:32;1.10;88.50
4501;DHT22;2263;54.654;9.410;2022-12-07T06:58:59;1.10;88.40
4501;DHT22;2263;54.654;9.410;2022-12-07T07:01:26;1.10;88.30
4501;DHT22;2263;54.654;9.410;2022-12-07T07:03:53;1.00;88.20
4501;DHT22;2263;54.654;9.410;2022-12-07T07:06:20;1.10;88.30
4501;DHT22;2263;54.654;9.410;2022-12-07T07:08:47;1.10;88.30
4501;DHT22;2263;54.654;9.410;2022-12-07T07:11:14;1.10;88.40
4501;DHT22;2263;54.654;9.410;2022-12-07T07:13:41;1.10;88.40
4501;DHT22;2263;54.654;9.410;2022-12-07T07:16:09;1.10;88.40
4501;DHT22;2263;54.654;9.410;2022-12-07T07:18:36;1.10;88.30
4501;DHT22;2263;54.654;9.410;2022-12-07T07:21:03;1.10;88.30
4501;DHT22;2263;54.654;9.410;2022-12-07T07:23:31;1.10;88.20
4501;DHT22;2263;54.654;9.410;2022-12-07T07:25:58;1.10;88.80
4501;DHT22;2263;54.654;9.410;2022-12-07T07:28:25;1.20;88.30
4501;DHT22;2263;54.654;9.410;2022-12-07T07:30:52;1.20;88.30
4501;DHT22;2263;54.654;9.410;2022-12-07T07:33:19;1.20;88.40
4501;DHT22;2263;54.654;9.410;2022-12-07T07:35:46;1.20;88.50
4501;DHT22;2263;54.654;9.410;2022-12-07T07:38:14;1.20;88.50
4501;DHT22;2263;54.654;9.410;2022-12-07T07:40:41;1.20;88.50
4501;DHT22;2263;54.654;9.410;2022-12-07T07:43:08;1.20;88.50
4501;DHT22;2263;54.654;9.410;2022-12-07T07:45:36;1.20;88.60
4501;DHT22;2263;54.654;9.410;2022-12-07T07:48:03;1.20;88.60
4501;DHT22;2263;54.654;9.410;2022-12-07T07:50:30;1.20;88.60
4501;DHT22;2263;54.654;9.410;2022-12-07T07:52:57;1.20;88.50
4501;DHT22;2263;54.654;9.410;2022-12-07T07:55:24;1.20;88.50
4501;DHT22;2263;54.654;9.410;2022-12-07T07:57:52;1.20;88.60
4501;DHT22;2263;54.654;9.410;2022-12-07T08:00:21;1.20;88.60
4501;DHT22;2263;54.654;9.410;2022-12-07T08:02:49;1.20;88.70
4501;DHT22;2263;54.654;9.410;2022-12-07T08:05:17;1.20;88.60
4501;DHT22;2263;54.654;9.410;2022-12-07T08:07:44;1.20;88.70
4501;DHT22;2263;54.654;9.410;2022-12-07T08:10:12;1.20;88.70
4501;DHT22;2263;54.654;9.410;2022-12-07T08:12:41;1.20;88.60
4501;DHT22;2263;54.654;9.410;2022-12-07T08:15:29;1.20;88.80
4501;DHT22;2263;54.654;9.410;2022-12-07T08:17:57;1.20;88.80
4501;DHT22;2263;54.654;9.410;2022-12-07T08:20:24;1.20;88.80
4501;DHT22;2263;54.654;9.410;2022-12-07T08:22:52;1.20;88.80
4501;DHT22;2263;54.654;9.410;2022-12-07T08:25:19;1.20;88.90
4501;DHT22;2263;54.654;9.410;2022-12-07T08:27:46;1.20;88.80
4501;DHT22;2263;54.654;9.410;2022-12-07T08:30:13;1.20;88.90
4501;DHT22;2263;54.654;9.410;2022-12-07T08:32:40;1.20;88.90
4501;DHT22;2263;54.654;9.410;2022-12-07T08:35:08;1.20;89.00
4501;DHT22;2263;54.654;9.410;2022-12-07T08:37:35;1.20;88.90
4501;DHT22;2263;54.654;9.410;2022-12-07T08:40:04;1.20;89.00
4501;DHT22;2263;54.654;9.410;2022-12-07T08:42:32;1.20;88.90
4501;DHT22;2263;54.654;9.410;2022-12-07T08:45:11;1.20;89.00
4501;DHT22;2263;54.654;9.410;2022-12-07T08:47:45;1.20;89.10
4501;DHT22;2263;54.654;9.410;2022-12-07T08:50:14;1.20;89.10
4501;DHT22;2263;54.654;9.410;2022-12-07T08:52:41;1.20;89.10
4501;DHT22;2263;54.654;9.410;2022-12-07T08:55:10;1.20;89.20
4501;DHT22;2263;54.654;9.410;2022-12-07T08:57:39;1.20;89.10
4501;DHT22;2263;54.654;9.410;2022-12-07T09:00:06;1.20;89.20
4501;DHT22;2263;54.654;9.410;2022-12-07T09:02:34;1.20;89.20
4501;DHT22;2263;54.654;9.410;2022-12-07T09:05:01;1.20;89.20
4501;DHT22;2263;54.654;9.410;2022-12-07T09:07:30;1.20;89.30
4501;DHT22;2263;54.654;9.410;2022-12-07T09:09:59;1.20;89.30
4501;DHT22;2263;54.654;9.410;2022-12-07T09:12:26;1.20;89.20
4501;DHT22;2263;54.654;9.410;2022-12-07T09:14:53;1.20;89.40
4501;DHT22;2263;54.654;9.410;2022-12-07T09:17:20;1.30;89.50
4501;DHT22;2263;54.654;9.410;2022-12-07T09:19:48;1.30;89.50
4501;DHT22;2263;54.654;9.410;2022-12-07T09:22:15;1.30;89.60
4501;DHT22;2263;54.654;9.410;2022-12-07T09:24:42;1.30;89.50
4501;DHT22;2263;54.654;9.410;2022-12-07T09:27:10;1.30;89.60
4501;DHT22;2263;54.654;9.410;2022-12-07T09:29:37;1.30;89.60
4501;DHT22;2263;54.654;9.410;2022-12-07T09:32:04;1.30;89.70
4501;DHT22;2263;54.654;9.410;2022-12-07T09:34:37;1.30;89.90
4501;DHT22;2263;54.654;9.410;2022-12-07T09:37:04;1.30;89.80
4501;DHT22;2263;54.654;9.410;2022-12-07T09:39:32;1.30;89.80
4501;DHT22;2263;54.654;9.410;2022-12-07T09:41:59;1.30;89.80
4501;DHT22;2263;54.654;9.410;2022-12-07T09:44:29;1.30;90.00
4501;DHT22;2263;54.654;9.410;2022-12-07T09:46:57;1.40;90.00
4501;DHT22;2263;54.654;9.410;2022-12-07T09:49:25;1.40;89.90
4501;DHT22;2263;54.654;9.410;2022-12-07T09:54:29;1.30;90.00
4501;DHT22;2263;54.654;9.410;2022-12-07T09:56:58;1.40;90.00
4501;DHT22;2263;54.654;9.410;2022-12-07T09:59:25;1.40;90.00
4501;DHT22;2263;54.654;9.410;2022-12-07T10:02:22;1.40;90.10
4501;DHT22;2263;54.654;9.410;2022-12-07T10:04:50;1.40;90.10
4501;DHT22;2263;54.654;9.410;2022-12-07T10:07:17;1.30;90.00
4501;DHT22;2263;54.654;9.410;2022-12-07T10:09:44;1.40;90.10
4501;DHT22;2263;54.654;9.410;2022-12-07T10:12:12;1.40;90.10
4501;DHT22;2263;54.654;9.410;2022-12-07T10:14:56;1.40;90.00
4501;DHT22;2263;54.654;9.410;2022-12-07T10:17:38;1.40;90.10
4501;DHT22;2263;54.654;9.410;2022-12-07T10:20:15;1.40;90.10
4501;DHT22;2263;54.654;9.410;2022-12-07T10:23:05;1.40;90.10
4501;DHT22;2263;54.654;9.410;2022-12-07T10:25:35;1.40;90.10
4501;DHT22;2263;54.654;9.410;2022-12-07T10:28:15;1.30;90.10
4501;DHT22;2263;54.654;9.410;2022-12-07T10:31:02;1.40;90.10
4501;DHT22;2263;54.654;9.410;2022-12-07T10:33:37;1.40;90.10
4501;DHT22;2263;54.654;9.410;2022-12-07T10:36:24;1.40;90.10
4501;DHT22;2263;54.654;9.410;2022-12-07T10:41:27;1.40;90.20
4501;DHT22;2263;54.654;9.410;2022-12-07T10:43:56;1.50;90.30
4501;DHT22;2263;54.654;9.410;2022-12-07T10:46:43;1.50;90.20
4501;DHT22;2263;54.654;9.410;2022-12-07T10:49:36;1.50;90.20
4501;DHT22;2263;54.654;9.410;2022-12-07T10:59:59;1.50;90.20
4501;DHT22;2263;54.654;9.410;2022-12-07T11:08:37;1.50;90.20
4501;DHT22;2263;54.654;9.410;2022-12-07T11:11:29;1.60;90.40
4501;DHT22;2263;54.654;9.410;2022-12-07T11:17:10;1.60;90.40
4501;DHT22;2263;54.654;9.410;2022-12-07T11:25:36;1.60;90.30
4501;DHT22;2263;54.654;9.410;2022-12-07T11:34:00;1.60;90.40
4501;DHT22;2263;54.654;9.410;2022-12-07T11:41:51;1.70;90.40
4501;DHT22;2263;54.654;9.410;2022-12-07T11:44:36;1.60;90.40
4501;DHT22;2263;54.654;9.410;2022-12-07T11:50:13;1.60;90.40
4501;DHT22;2263;54.654;9.410;2022-12-07T11:52:48;1.70;90.50
4501;DHT22;2263;54.654;9.410;2022-12-07T12:01:02;1.70;90.50
4501;DHT22;2263;54.654;9.410;2022-12-07T12:03:35;1.70;90.50
4501;DHT22;2263;54.654;9.410;2022-12-07T12:06:05;1.70;90.50
4501;DHT22;2263;54.654;9.410;2022-12-07T12:08:50;1.70;90.40
4501;DHT22;2263;54.654;9.410;2022-12-07T12:17:36;1.70;90.40
4501;DHT22;2263;54.654;9.410;2022-12-07T12:23:00;1.70;90.40
4501;DHT22;2263;54.654;9.410;2022-12-07T12:25:52;1.70;90.60
4501;DHT22;2263;54.654;9.410;2022-12-07T12:33:38;1.70;90.50
4501;DHT22;2263;54.654;9.410;2022-12-07T12:46:59;1.70;90.50
4501;DHT22;2263;54.654;9.410;2022-12-07T12:57:29;1.70;90.40
4501;DHT22;2263;54.654;9.410;2022-12-07T12:59:58;1.70;90.50
4501;DHT22;2263;54.654;9.410;2022-12-07T13:05:01;1.70;90.50
4501;DHT22;2263;54.654;9.410;2022-12-07T13:10:40;1.70;90.50
4501;DHT22;2263;54.654;9.410;2022-12-07T13:15:48;1.70;90.50
4501;DHT22;2263;54.654;9.410;2022-12-07T13:20:59;1.70;90.50
4501;DHT22;2263;54.654;9.410;2022-12-07T13:29:11;1.70;90.50
4501;DHT22;2263;54.654;9.410;2022-12-07T13:31:56;1.70;90.50
4501;DHT22;2263;54.654;9.410;2022-12-07T13:34:35;1.70;90.50
4501;DHT22;2263;54.654;9.410;2022-12-07T13:39:49;1.70;90.40
4501;DHT22;2263;54.654;9.410;2022-12-07T13:44:58;1.60;90.40
4501;DHT22;2263;54.654;9.410;2022-12-07T13:47:46;1.60;90.40
4501;DHT22;2263;54.654;9.410;2022-12-07T13:50:28;1.70;90.70
4501;DHT22;2263;54.654;9.410;2022-12-07T13:52:58;1.60;90.40
4501;DHT22;2263;54.654;9.410;2022-12-07T13:55:27;1.60;90.40
4501;DHT22;2263;54.654;9.410;2022-12-07T13:57:55;1.60;90.40
4501;DHT22;2263;54.654;9.410;2022-12-07T14:00:25;1.60;90.40
4501;DHT22;2263;54.654;9.410;2022-12-07T14:03:01;1.60;90.40
4501;DHT22;2263;54.654;9.410;2022-12-07T14:05:32;1.60;90.40
4501;DHT22;2263;54.654;9.410;2022-12-07T14:10:53;1.60;90.40
4501;DHT22;2263;54.654;9.410;2022-12-07T14:13:34;1.60;90.40
4501;DHT22;2263;54.654;9.410;2022-12-07T14:16:03;1.60;90.40
4501;DHT22;2263;54.654;9.410;2022-12-07T14:18:40;1.60;90.30
4501;DHT22;2263;54.654;9.410;2022-12-07T14:23:39;1.60;90.30
4501;DHT22;2263;54.654;9.410;2022-12-07T14:26:19;1.60;90.40
4501;DHT22;2263;54.654;9.410;2022-12-07T14:28:47;1.60;90.30
4501;DHT22;2263;54.654;9.410;2022-12-07T14:31:17;1.60;90.40
4501;DHT22;2263;54.654;9.410;2022-12-07T14:33:59;1.60;90.30
4501;DHT22;2263;54.654;9.410;2022-12-07T14:36:26;1.60;90.30
4501;DHT22;2263;54.654;9.410;2022-12-07T14:38:53;1.60;90.30
4501;DHT22;2263;54.654;9.410;2022-12-07T14:41:23;1.60;90.30
4501;DHT22;2263;54.654;9.410;2022-12-07T14:44:21;1.60;90.30
4501;DHT22;2263;54.654;9.410;2022-12-07T14:46:52;1.60;90.30
4501;DHT22;2263;54.654;9.410;2022-12-07T14:49:43;1.60;90.30
4501;DHT22;2263;54.654;9.410;2022-12-07T14:52:16;1.60;90.30
4501;DHT22;2263;54.654;9.410;2022-12-07T14:55:04;1.60;90.30
4501;DHT22;2263;54.654;9.410;2022-12-07T14:57:31;1.50;90.20
4501;DHT22;2263;54.654;9.410;2022-12-07T14:59:59;1.60;90.30
4501;DHT22;2263;54.654;9.410;2022-12-07T15:02:26;1.60;90.30
4501;DHT22;2263;54.654;9.410;2022-12-07T15:04:53;1.60;90.30
4501;DHT22;2263;54.654;9.410;2022-12-07T15:07:20;1.50;90.20
4501;DHT22;2263;54.654;9.410;2022-12-07T15:09:48;1.50;90.20
4501;DHT22;2263;54.654;9.410;2022-12-07T15:12:15;1.50;90.20
4501;DHT22;2263;54.654;9.410;2022-12-07T15:14:42;1.60;90.20
4501;DHT22;2263;54.654;9.410;2022-12-07T15:17:11;1.50;90.10
4501;DHT22;2263;54.654;9.410;2022-12-07T15:19:55;1.50;90.10
4501;DHT22;2263;54.654;9.410;2022-12-07T15:22:22;1.50;90.10
4501;DHT22;2263;54.654;9.410;2022-12-07T15:24:49;1.50;90.10
4501;DHT22;2263;54.654;9.410;2022-12-07T15:27:16;1.50;90.10
4501;DHT22;2263;54.654;9.410;2022-12-07T15:29:43;1.50;90.40
4501;DHT22;2263;54.654;9.410;2022-12-07T15:32:11;1.50;90.10
4501;DHT22;2263;54.654;9.410;2022-12-07T15:34:38;1.50;90.10
4501;DHT22;2263;54.654;9.410;2022-12-07T15:37:07;1.50;90.00
4501;DHT22;2263;54.654;9.410;2022-12-07T15:39:36;1.50;90.00
4501;DHT22;2263;54.654;9.410;2022-12-07T15:42:03;1.50;90.00
4501;DHT22;2263;54.654;9.410;2022-12-07T15:44:31;1.40;90.00
4501;DHT22;2263;54.654;9.410;2022-12-07T15:47:16;1.40;89.90
4501;DHT22;2263;54.654;9.410;2022-12-07T15:49:43;1.40;89.80
4501;DHT22;2263;54.654;9.410;2022-12-07T15:52:10;1.40;89.70
4501;DHT22;2263;54.654;9.410;2022-12-07T15:54:37;1.40;89.70
4501;DHT22;2263;54.654;9.410;2022-12-07T15:57:04;1.40;89.60
4501;DHT22;2263;54.654;9.410;2022-12-07T15:59:32;1.40;89.50
4501;DHT22;2263;54.654;9.410;2022-12-07T16:01:59;1.40;89.30
4501;DHT22;2263;54.654;9.410;2022-12-07T16:04:27;1.40;89.50
4501;DHT22;2263;54.654;9.410;2022-12-07T16:06:56;1.30;89.20
4501;DHT22;2263;54.654;9.410;2022-12-07T16:09:23;1.30;89.20
4501;DHT22;2263;54.654;9.410;2022-12-07T16:11:50;1.30;89.80
4501;DHT22;2263;54.654;9.410;2022-12-07T16:14:19;1.30;89.10
4501;DHT22;2263;54.654;9.410;2022-12-07T16:16:47;1.30;89.20
4501;DHT22;2263;54.654;9.410;2022-12-07T16:19:14;1.30;89.10
4501;DHT22;2263;54.654;9.410;2022-12-07T16:21:41;1.30;88.90
4501;DHT22;2263;54.654;9.410;2022-12-07T16:24:09;1.30;89.00
4501;DHT22;2263;54.654;9.410;2022-12-07T16:26:37;1.30;89.10
4501;DHT22;2263;54.654;9.410;2022-12-07T16:29:04;1.20;88.90
4501;DHT22;2263;54.654;9.410;2022-12-07T16:31:31;1.20;88.90
4501;DHT22;2263;54.654;9.410;2022-12-07T16:33:58;1.20;89.10
4501;DHT22;2263;54.654;9.410;2022-12-07T16:36:26;1.20;88.90
4501;DHT22;2263;54.654;9.410;2022-12-07T16:39:14;1.20;89.10
4501;DHT22;2263;54.654;9.410;2022-12-07T16:41:41;1.20;88.80
4501;DHT22;2263;54.654;9.410;2022-12-07T16:44:11;1.20;88.90
4501;DHT22;2263;54.654;9.410;2022-12-07T16:46:40;1.20;88.80
4501;DHT22;2263;54.654;9.410;2022-12-07T16:49:14;1.20;89.50
4501;DHT22;2263;54.654;9.410;2022-12-07T16:51:42;1.10;88.70
4501;DHT22;2263;54.654;9.410;2022-12-07T16:54:14;1.20;88.80
4501;DHT22;2263;54.654;9.410;2022-12-07T16:56:41;1.20;88.90
4501;DHT22;2263;54.654;9.410;2022-12-07T16:59:08;1.10;88.60
4501;DHT22;2263;54.654;9.410;2022-12-07T17:01:35;1.10;88.80
4501;DHT22;2263;54.654;9.410;2022-12-07T17:04:02;1.10;89.40
4501;DHT22;2263;54.654;9.410;2022-12-07T17:06:31;1.10;88.40
4501;DHT22;2263;54.654;9.410;2022-12-07T17:08:59;1.10;88.70
4501;DHT22;2263;54.654;9.410;2022-12-07T17:11:28;1.10;88.50
4501;DHT22;2263;54.654;9.410;2022-12-07T17:13:59;1.10;88.60
4501;DHT22;2263;54.654;9.410;2022-12-07T17:16:45;1.10;88.50
4501;DHT22;2263;54.654;9.410;2022-12-07T17:19:14;1.10;88.70
4501;DHT22;2263;54.654;9.410;2022-12-07T17:21:42;1.10;88.80
4501;DHT22;2263;54.654;9.410;2022-12-07T17:24:12;1.10;88.50
4501;DHT22;2263;54.654;9.410;2022-12-07T17:26:39;1.10;88.60
4501;DHT22;2263;54.654;9.410;2022-12-07T17:29:11;1.10;88.60
4501;DHT22;2263;54.654;9.410;2022-12-07T17:31:38;1.00;88.60
4501;DHT22;2263;54.654;9.410;2022-12-07T17:34:12;1.10;88.70
4501;DHT22;2263;54.654;9.410;2022-12-07T17:36:40;1.10;88.60
4501;DHT22;2263;54.654;9.410;2022-12-07T17:39:13;1.10;88.60
4501;DHT22;2263;54.654;9.410;2022-12-07T17:41:41;1.00;88.70
4501;DHT22;2263;54.654;9.410;2022-12-07T17:44:27;1.00;88.60
4501;DHT22;2263;54.654;9.410;2022-12-07T17:46:54;1.10;88.70
4501;DHT22;2263;54.654;9.410;2022-12-07T17:49:25;1.00;88.70
4501;DHT22;2263;54.654;9.410;2022-12-07T17:51:52;1.00;88.80
4501;DHT22;2263;54.654;9.410;2022-12-07T17:54:38;1.00;88.60
4501;DHT22;2263;54.654;9.410;2022-12-07T17:57:05;1.00;88.40
4501;DHT22;2263;54.654;9.410;2022-12-07T17:59:32;1.00;88.50
4501;DHT22;2263;54.654;9.410;2022-12-07T18:02:03;1.00;88.50
4501;DHT22;2263;54.654;9.410;2022-12-07T18:04:33;1.00;88.60
4501;DHT22;2263;54.654;9.410;2022-12-07T18:07:00;1.00;88.40
4501;DHT22;2263;54.654;9.410;2022-12-07T18:09:27;1.00;88.50
4501;DHT22;2263;54.654;9.410;2022-12-07T18:11:54;1.00;88.40
4501;DHT22;2263;54.654;9.410;2022-12-07T18:14:21;1.00;88.40
4501;DHT22;2263;54.654;9.410;2022-12-07T18:16:48;1.00;88.50
4501;DHT22;2263;54.654;9.410;2022-12-07T18:19:17;1.00;89.20
4501;DHT22;2263;54.654;9.410;2022-12-07T18:21:47;1.00;88.80
4501;DHT22;2263;54.654;9.410;2022-12-07T18:24:18;1.00;88.80
4501;DHT22;2263;54.654;9.410;2022-12-07T18:26:45;1.00;88.70
4501;DHT22;2263;54.654;9.410;2022-12-07T18:29:15;1.00;88.60
4501;DHT22;2263;54.654;9.410;2022-12-07T18:31:44;1.00;88.70
4501;DHT22;2263;54.654;9.410;2022-12-07T18:34:15;1.00;88.50
4501;DHT22;2263;54.654;9.410;2022-12-07T18:36:45;1.00;88.60
4501;DHT22;2263;54.654;9.410;2022-12-07T18:39:14;1.00;88.60
4501;DHT22;2263;54.654;9.410;2022-12-07T18:41:42;0.90;88.10
4501;DHT22;2263;54.654;9.410;2022-12-07T18:44:09;1.00;89.00
4501;DHT22;2263;54.654;9.410;2022-12-07T18:46:39;1.10;89.00
4501;DHT22;2263;54.654;9.410;2022-12-07T18:49:12;1.20;89.00
4501;DHT22;2263;54.654;9.410;2022-12-07T18:51:39;1.20;88.80
4501;DHT22;2263;54.654;9.410;2022-12-07T18:54:07;1.30;88.80
4501;DHT22;2263;54.654;9.410;2022-12-07T18:56:37;1.30;88.90
4501;DHT22;2263;54.654;9.410;2022-12-07T18:59:05;1.40;89.10